PROFILE

 METAR AND TAF INFORMATION
ADDS - METARS form results

(1201 UTC 16 October 2019)
http://aviationweather.gov/metar/data/
 
LPHR 161130Z 14009KT 100V170 9999 FEW008 SCT014 22/19 Q1016
TAF AMD LPHR 160937Z 1609/1618 25018KT 5000 -RA BR SCT004 BKN010 TEMPO 1609/1611 1200 RADZ BR SCT000 BKN002 BECMG 1611/1614 03012KT 9999 NSW SCT015 SCT040 TEMPO 1614/1618 8000 SHRA BKN012 

 AIRPORT MAP

 RUNWAY INFORMATION
Runway 10 Runway length 5233 ft Runway width 148 ft
Runway elevation 81 ft Runway displaced threshold 0 ft Runway heading 90
Runway 28 Runway length 5233 ft Runway width 148 ft
Runway elevation 117 ft Runway displaced threshold 0 ft Runway heading 270

 AIRPORT FREQUENCIES
Type APP Name APP Frequency 119.7 MHZ
Type TWR Name TWR Frequency 118 MHZ

 AIRPORT NEAR NAVIGATION AIDS
Type NDB Name Horta Frequency 380 KHZ
Type NDB Name Horta Frequency 360 KHZ
Type VORTAC Name Horta Frequency 112700 KHZ